sensor_id;sensor_type;location;lat;lon;timestamp;P1;durP1;ratioP1;P2;durP2;ratioP2
828;SDS011;396;52.558;13.188;2023-07-08T00:00:08;8.17;;;2.73;;
828;SDS011;396;52.558;13.188;2023-07-08T00:02:37;10.10;;;3.60;;
828;SDS011;396;52.558;13.188;2023-07-08T00:05:04;6.50;;;2.73;;
828;SDS011;396;52.558;13.188;2023-07-08T00:07:32;7.20;;;3.20;;
828;SDS011;396;52.558;13.188;2023-07-08T00:09:59;9.63;;;3.50;;
828;SDS011;396;52.558;13.188;2023-07-08T00:12:25;8.87;;;4.17;;
828;SDS011;396;52.558;13.188;2023-07-08T00:14:52;8.13;;;3.77;;
828;SDS011;396;52.558;13.188;2023-07-08T00:17:18;8.40;;;3.63;;
828;SDS011;396;52.558;13.188;2023-07-08T00:19:45;7.00;;;3.40;;
828;SDS011;396;52.558;13.188;2023-07-08T00:22:13;10.50;;;4.10;;
828;SDS011;396;52.558;13.188;2023-07-08T00:24:41;8.80;;;3.97;;
828;SDS011;396;52.558;13.188;2023-07-08T00:27:09;9.73;;;3.80;;
828;SDS011;396;52.558;13.188;2023-07-08T00:29:38;8.90;;;4.10;;
828;SDS011;396;52.558;13.188;2023-07-08T00:32:08;10.07;;;4.07;;
828;SDS011;396;52.558;13.188;2023-07-08T00:34:37;11.47;;;4.53;;
828;SDS011;396;52.558;13.188;2023-07-08T00:37:03;9.70;;;3.80;;
828;SDS011;396;52.558;13.188;2023-07-08T00:39:30;9.60;;;3.77;;
828;SDS011;396;52.558;13.188;2023-07-08T00:41:58;7.80;;;3.47;;
828;SDS011;396;52.558;13.188;2023-07-08T00:44:26;8.73;;;3.93;;
828;SDS011;396;52.558;13.188;2023-07-08T00:46:55;9.87;;;4.23;;
828;SDS011;396;52.558;13.188;2023-07-08T00:49:36;6.53;;;3.30;;
828;SDS011;396;52.558;13.188;2023-07-08T00:52:20;9.10;;;4.20;;
828;SDS011;396;52.558;13.188;2023-07-08T00:54:49;10.40;;;4.40;;
828;SDS011;396;52.558;13.188;2023-07-08T00:57:18;11.07;;;3.80;;
828;SDS011;396;52.558;13.188;2023-07-08T00:59:47;8.97;;;3.77;;
828;SDS011;396;52.558;13.188;2023-07-08T01:02:19;11.70;;;4.10;;
828;SDS011;396;52.558;13.188;2023-07-08T01:04:50;9.30;;;3.80;;
828;SDS011;396;52.558;13.188;2023-07-08T01:07:19;7.10;;;3.53;;
828;SDS011;396;52.558;13.188;2023-07-08T01:09:48;8.93;;;4.10;;
828;SDS011;396;52.558;13.188;2023-07-08T01:12:20;9.60;;;4.00;;
828;SDS011;396;52.558;13.188;2023-07-08T01:14:51;8.33;;;3.90;;
828;SDS011;396;52.558;13.188;2023-07-08T01:17:20;7.40;;;3.30;;
828;SDS011;396;52.558;13.188;2023-07-08T01:19:47;8.10;;;4.23;;
828;SDS011;396;52.558;13.188;2023-07-08T01:22:17;6.33;;;2.97;;
828;SDS011;396;52.558;13.188;2023-07-08T01:24:44;10.07;;;3.83;;
828;SDS011;396;52.558;13.188;2023-07-08T01:27:12;10.50;;;4.60;;
828;SDS011;396;52.558;13.188;2023-07-08T01:29:41;9.10;;;4.00;;
828;SDS011;396;52.558;13.188;2023-07-08T01:32:09;11.93;;;4.37;;
828;SDS011;396;52.558;13.188;2023-07-08T01:34:39;10.17;;;4.60;;
828;SDS011;396;52.558;13.188;2023-07-08T01:37:06;9.80;;;3.80;;
828;SDS011;396;52.558;13.188;2023-07-08T01:39:34;6.97;;;3.43;;
828;SDS011;396;52.558;13.188;2023-07-08T01:42:00;9.00;;;3.73;;
828;SDS011;396;52.558;13.188;2023-07-08T01:44:28;7.50;;;4.00;;
828;SDS011;396;52.558;13.188;2023-07-08T01:46:58;8.20;;;4.03;;
828;SDS011;396;52.558;13.188;2023-07-08T01:49:28;8.80;;;3.33;;
828;SDS011;396;52.558;13.188;2023-07-08T01:51:56;8.50;;;4.40;;
828;SDS011;396;52.558;13.188;2023-07-08T01:54:23;14.10;;;4.10;;
828;SDS011;396;52.558;13.188;2023-07-08T01:56:55;11.57;;;5.13;;
828;SDS011;396;52.558;13.188;2023-07-08T01:59:22;9.83;;;4.07;;
828;SDS011;396;52.558;13.188;2023-07-08T02:01:49;8.30;;;4.17;;
828;SDS011;396;52.558;13.188;2023-07-08T02:04:19;7.80;;;3.80;;
828;SDS011;396;52.558;13.188;2023-07-08T02:06:50;9.07;;;4.57;;
828;SDS011;396;52.558;13.188;2023-07-08T02:09:18;10.23;;;5.23;;
828;SDS011;396;52.558;13.188;2023-07-08T02:11:44;8.47;;;4.47;;
828;SDS011;396;52.558;13.188;2023-07-08T02:14:12;9.33;;;4.40;;
828;SDS011;396;52.558;13.188;2023-07-08T02:16:39;8.80;;;4.07;;
828;SDS011;396;52.558;13.188;2023-07-08T02:19:06;9.00;;;4.00;;
828;SDS011;396;52.558;13.188;2023-07-08T02:21:32;8.43;;;4.63;;
828;SDS011;396;52.558;13.188;2023-07-08T02:24:00;8.30;;;4.40;;
828;SDS011;396;52.558;13.188;2023-07-08T02:26:27;11.53;;;4.07;;
828;SDS011;396;52.558;13.188;2023-07-08T02:28:54;9.80;;;3.70;;
828;SDS011;396;52.558;13.188;2023-07-08T02:31:22;10.70;;;4.47;;
828;SDS011;396;52.558;13.188;2023-07-08T02:33:49;10.03;;;4.00;;
828;SDS011;396;52.558;13.188;2023-07-08T02:36:16;7.70;;;3.70;;
828;SDS011;396;52.558;13.188;2023-07-08T02:38:43;8.00;;;4.50;;
828;SDS011;396;52.558;13.188;2023-07-08T02:41:09;9.67;;;3.77;;
828;SDS011;396;52.558;13.188;2023-07-08T02:43:37;8.17;;;3.90;;
828;SDS011;396;52.558;13.188;2023-07-08T02:46:03;10.37;;;4.30;;
828;SDS011;396;52.558;13.188;2023-07-08T02:48:31;7.20;;;3.93;;
828;SDS011;396;52.558;13.188;2023-07-08T02:50:58;10.77;;;4.20;;
828;SDS011;396;52.558;13.188;2023-07-08T02:53:26;8.03;;;3.93;;
828;SDS011;396;52.558;13.188;2023-07-08T02:55:52;9.07;;;4.53;;
828;SDS011;396;52.558;13.188;2023-07-08T02:58:19;9.20;;;4.20;;
828;SDS011;396;52.558;13.188;2023-07-08T03:00:50;8.83;;;3.50;;
828;SDS011;396;52.558;13.188;2023-07-08T03:03:17;13.63;;;4.53;;
828;SDS011;396;52.558;13.188;2023-07-08T03:05:47;9.63;;;4.83;;
828;SDS011;396;52.558;13.188;2023-07-08T03:08:20;9.13;;;4.40;;
828;SDS011;396;52.558;13.188;2023-07-08T03:10:47;8.50;;;4.27;;
828;SDS011;396;52.558;13.188;2023-07-08T03:13:14;8.70;;;4.27;;
828;SDS011;396;52.558;13.188;2023-07-08T03:15:44;10.37;;;5.70;;
828;SDS011;396;52.558;13.188;2023-07-08T03:18:11;8.87;;;4.30;;
828;SDS011;396;52.558;13.188;2023-07-08T03:20:39;7.97;;;4.13;;
828;SDS011;396;52.558;13.188;2023-07-08T03:23:07;9.57;;;4.73;;
828;SDS011;396;52.558;13.188;2023-07-08T03:25:35;8.20;;;3.97;;
828;SDS011;396;52.558;13.188;2023-07-08T03:28:02;9.60;;;4.30;;
828;SDS011;396;52.558;13.188;2023-07-08T03:30:31;12.60;;;5.63;;
828;SDS011;396;52.558;13.188;2023-07-08T03:32:58;9.60;;;4.40;;
828;SDS011;396;52.558;13.188;2023-07-08T03:35:24;8.93;;;4.33;;
828;SDS011;396;52.558;13.188;2023-07-08T03:37:51;9.27;;;4.50;;
828;SDS011;396;52.558;13.188;2023-07-08T03:40:19;7.97;;;4.10;;
828;SDS011;396;52.558;13.188;2023-07-08T03:42:46;9.33;;;4.20;;
828;SDS011;396;52.558;13.188;2023-07-08T03:45:13;8.80;;;4.40;;
828;SDS011;396;52.558;13.188;2023-07-08T03:47:39;8.13;;;4.50;;
828;SDS011;396;52.558;13.188;2023-07-08T03:50:08;9.43;;;3.87;;
828;SDS011;396;52.558;13.188;2023-07-08T03:52:43;11.43;;;4.00;;
828;SDS011;396;52.558;13.188;2023-07-08T03:55:10;11.10;;;5.07;;
828;SDS011;396;52.558;13.188;2023-07-08T03:57:39;10.13;;;4.83;;
828;SDS011;396;52.558;13.188;2023-07-08T04:00:06;8.20;;;4.03;;
828;SDS011;396;52.558;13.188;2023-07-08T04:02:37;10.30;;;4.37;;
828;SDS011;396;52.558;13.188;2023-07-08T04:05:04;10.67;;;4.30;;
828;SDS011;396;52.558;13.188;2023-07-08T04:07:31;20.83;;;4.70;;
828;SDS011;396;52.558;13.188;2023-07-08T04:09:58;9.53;;;4.37;;
828;SDS011;396;52.558;13.188;2023-07-08T04:12:24;9.47;;;4.57;;
828;SDS011;396;52.558;13.188;2023-07-08T04:14:52;9.80;;;4.87;;
828;SDS011;396;52.558;13.188;2023-07-08T04:17:19;11.30;;;4.77;;
828;SDS011;396;52.558;13.188;2023-07-08T04:19:48;9.73;;;4.50;;
828;SDS011;396;52.558;13.188;2023-07-08T04:22:15;9.07;;;4.10;;
828;SDS011;396;52.558;13.188;2023-07-08T04:24:42;8.90;;;4.63;;
828;SDS011;396;52.558;13.188;2023-07-08T04:27:10;10.10;;;4.60;;
828;SDS011;396;52.558;13.188;2023-07-08T04:29:42;14.63;;;4.40;;
828;SDS011;396;52.558;13.188;2023-07-08T04:32:11;10.33;;;4.30;;
828;SDS011;396;52.558;13.188;2023-07-08T04:34:37;13.47;;;4.37;;
828;SDS011;396;52.558;13.188;2023-07-08T04:37:04;9.37;;;4.37;;
828;SDS011;396;52.558;13.188;2023-07-08T04:39:31;10.70;;;4.93;;
828;SDS011;396;52.558;13.188;2023-07-08T04:41:58;9.67;;;4.97;;
828;SDS011;396;52.558;13.188;2023-07-08T04:44:24;10.23;;;3.73;;
828;SDS011;396;52.558;13.188;2023-07-08T04:46:53;7.50;;;3.70;;
828;SDS011;396;52.558;13.188;2023-07-08T04:49:23;8.30;;;4.00;;
828;SDS011;396;52.558;13.188;2023-07-08T04:51:56;10.77;;;4.93;;
828;SDS011;396;52.558;13.188;2023-07-08T04:54:23;8.50;;;3.63;;
828;SDS011;396;52.558;13.188;2023-07-08T04:56:49;8.20;;;3.80;;
828;SDS011;396;52.558;13.188;2023-07-08T04:59:18;9.37;;;4.40;;
828;SDS011;396;52.558;13.188;2023-07-08T05:01:47;12.23;;;4.70;;
828;SDS011;396;52.558;13.188;2023-07-08T05:04:14;8.57;;;4.07;;
828;SDS011;396;52.558;13.188;2023-07-08T05:06:44;10.60;;;4.03;;
828;SDS011;396;52.558;13.188;2023-07-08T05:09:10;9.90;;;3.93;;
828;SDS011;396;52.558;13.188;2023-07-08T05:11:37;7.60;;;3.80;;
828;SDS011;396;52.558;13.188;2023-07-08T05:14:04;8.50;;;3.73;;
828;SDS011;396;52.558;13.188;2023-07-08T05:16:32;8.73;;;4.20;;
828;SDS011;396;52.558;13.188;2023-07-08T05:19:00;7.70;;;3.40;;
828;SDS011;396;52.558;13.188;2023-07-08T05:21:28;9.83;;;3.93;;
828;SDS011;396;52.558;13.188;2023-07-08T05:23:59;11.03;;;4.37;;
828;SDS011;396;52.558;13.188;2023-07-08T05:26:26;8.70;;;4.30;;
828;SDS011;396;52.558;13.188;2023-07-08T05:28:53;18.10;;;4.47;;
828;SDS011;396;52.558;13.188;2023-07-08T05:31:19;9.07;;;4.00;;
828;SDS011;396;52.558;13.188;2023-07-08T05:33:46;13.77;;;5.03;;
828;SDS011;396;52.558;13.188;2023-07-08T05:36:12;8.93;;;3.33;;
828;SDS011;396;52.558;13.188;2023-07-08T05:38:39;10.37;;;4.47;;
828;SDS011;396;52.558;13.188;2023-07-08T05:41:07;9.40;;;4.00;;
828;SDS011;396;52.558;13.188;2023-07-08T05:43:34;8.00;;;4.00;;
828;SDS011;396;52.558;13.188;2023-07-08T05:46:00;8.13;;;3.90;;
828;SDS011;396;52.558;13.188;2023-07-08T05:48:28;11.00;;;4.23;;
828;SDS011;396;52.558;13.188;2023-07-08T05:50:55;8.37;;;4.07;;
828;SDS011;396;52.558;13.188;2023-07-08T05:53:22;9.27;;;3.90;;
828;SDS011;396;52.558;13.188;2023-07-08T05:55:49;8.07;;;3.13;;
828;SDS011;396;52.558;13.188;2023-07-08T05:58:17;6.47;;;3.00;;
828;SDS011;396;52.558;13.188;2023-07-08T06:00:44;6.67;;;2.70;;
828;SDS011;396;52.558;13.188;2023-07-08T06:03:11;10.03;;;3.87;;
828;SDS011;396;52.558;13.188;2023-07-08T06:05:38;7.43;;;3.33;;
828;SDS011;396;52.558;13.188;2023-07-08T06:08:05;7.90;;;3.37;;
828;SDS011;396;52.558;13.188;2023-07-08T06:10:32;8.47;;;3.17;;
828;SDS011;396;52.558;13.188;2023-07-08T06:12:59;8.07;;;3.60;;
828;SDS011;396;52.558;13.188;2023-07-08T06:15:27;7.23;;;3.30;;
828;SDS011;396;52.558;13.188;2023-07-08T06:17:54;7.40;;;3.00;;
828;SDS011;396;52.558;13.188;2023-07-08T06:20:20;6.80;;;3.10;;
828;SDS011;396;52.558;13.188;2023-07-08T06:22:47;6.23;;;2.83;;
828;SDS011;396;52.558;13.188;2023-07-08T06:25:13;6.00;;;2.97;;
828;SDS011;396;52.558;13.188;2023-07-08T06:27:40;8.47;;;3.40;;
828;SDS011;396;52.558;13.188;2023-07-08T06:30:07;5.87;;;2.73;;
828;SDS011;396;52.558;13.188;2023-07-08T06:32:36;7.87;;;2.80;;
828;SDS011;396;52.558;13.188;2023-07-08T06:35:03;5.47;;;2.33;;
828;SDS011;396;52.558;13.188;2023-07-08T06:37:30;6.23;;;3.00;;
828;SDS011;396;52.558;13.188;2023-07-08T06:39:57;7.63;;;3.50;;
828;SDS011;396;52.558;13.188;2023-07-08T06:42:23;7.30;;;3.20;;
828;SDS011;396;52.558;13.188;2023-07-08T06:44:50;6.30;;;2.33;;
828;SDS011;396;52.558;13.188;2023-07-08T06:47:16;7.00;;;3.13;;
828;SDS011;396;52.558;13.188;2023-07-08T06:49:46;7.10;;;3.33;;
828;SDS011;396;52.558;13.188;2023-07-08T06:52:13;6.10;;;2.70;;
828;SDS011;396;52.558;13.188;2023-07-08T06:54:40;5.70;;;2.53;;
828;SDS011;396;52.558;13.188;2023-07-08T06:57:07;6.60;;;2.60;;
828;SDS011;396;52.558;13.188;2023-07-08T06:59:33;6.90;;;3.03;;
828;SDS011;396;52.558;13.188;2023-07-08T07:02:01;7.73;;;2.70;;
828;SDS011;396;52.558;13.188;2023-07-08T07:04:27;7.00;;;2.73;;
828;SDS011;396;52.558;13.188;2023-07-08T07:06:57;5.43;;;1.90;;
828;SDS011;396;52.558;13.188;2023-07-08T07:09:23;5.67;;;2.33;;
828;SDS011;396;52.558;13.188;2023-07-08T07:11:50;6.23;;;2.30;;
828;SDS011;396;52.558;13.188;2023-07-08T07:14:17;5.90;;;2.60;;
828;SDS011;396;52.558;13.188;2023-07-08T07:16:43;6.10;;;2.50;;
828;SDS011;396;52.558;13.188;2023-07-08T07:19:10;6.50;;;2.67;;
828;SDS011;396;52.558;13.188;2023-07-08T07:21:37;8.43;;;3.30;;
828;SDS011;396;52.558;13.188;2023-07-08T07:24:05;6.80;;;2.80;;
828;SDS011;396;52.558;13.188;2023-07-08T07:26:32;5.70;;;2.33;;
828;SDS011;396;52.558;13.188;2023-07-08T07:28:59;6.70;;;2.80;;
828;SDS011;396;52.558;13.188;2023-07-08T07:31:26;7.97;;;2.90;;
828;SDS011;396;52.558;13.188;2023-07-08T07:33:53;8.10;;;2.80;;
828;SDS011;396;52.558;13.188;2023-07-08T07:36:20;6.33;;;2.37;;
828;SDS011;396;52.558;13.188;2023-07-08T07:38:46;8.77;;;2.73;;
828;SDS011;396;52.558;13.188;2023-07-08T07:41:14;7.30;;;2.73;;
828;SDS011;396;52.558;13.188;2023-07-08T07:43:41;6.33;;;2.93;;
828;SDS011;396;52.558;13.188;2023-07-08T07:46:07;5.90;;;2.63;;
828;SDS011;396;52.558;13.188;2023-07-08T07:48:35;5.67;;;2.60;;
828;SDS011;396;52.558;13.188;2023-07-08T07:51:02;5.90;;;2.60;;
828;SDS011;396;52.558;13.188;2023-07-08T07:53:30;17.87;;;2.60;;
828;SDS011;396;52.558;13.188;2023-07-08T07:55:57;6.47;;;2.80;;
828;SDS011;396;52.558;13.188;2023-07-08T07:58:26;6.30;;;2.33;;
828;SDS011;396;52.558;13.188;2023-07-08T08:00:53;6.10;;;1.97;;
828;SDS011;396;52.558;13.188;2023-07-08T08:03:20;6.23;;;2.70;;
828;SDS011;396;52.558;13.188;2023-07-08T08:05:47;6.73;;;2.63;;
828;SDS011;396;52.558;13.188;2023-07-08T08:08:14;6.13;;;2.90;;
828;SDS011;396;52.558;13.188;2023-07-08T08:10:41;5.50;;;2.20;;
828;SDS011;396;52.558;13.188;2023-07-08T08:13:08;6.00;;;2.43;;
828;SDS011;396;52.558;13.188;2023-07-08T08:15:38;7.03;;;2.60;;
828;SDS011;396;52.558;13.188;2023-07-08T08:18:04;7.40;;;3.10;;
828;SDS011;396;52.558;13.188;2023-07-08T08:20:31;6.60;;;2.53;;
828;SDS011;396;52.558;13.188;2023-07-08T08:22:58;6.37;;;2.53;;
828;SDS011;396;52.558;13.188;2023-07-08T08:25:24;8.17;;;2.80;;
828;SDS011;396;52.558;13.188;2023-07-08T08:27:51;5.50;;;2.30;;
828;SDS011;396;52.558;13.188;2023-07-08T08:30:17;6.87;;;2.80;;
828;SDS011;396;52.558;13.188;2023-07-08T08:32:46;5.67;;;2.60;;
828;SDS011;396;52.558;13.188;2023-07-08T08:35:12;5.50;;;1.90;;
828;SDS011;396;52.558;13.188;2023-07-08T08:37:39;6.20;;;2.47;;
828;SDS011;396;52.558;13.188;2023-07-08T08:40:07;5.63;;;2.40;;
828;SDS011;396;52.558;13.188;2023-07-08T08:42:39;6.13;;;2.80;;
828;SDS011;396;52.558;13.188;2023-07-08T08:45:09;6.30;;;2.47;;
828;SDS011;396;52.558;13.188;2023-07-08T08:47:39;6.70;;;2.80;;
828;SDS011;396;52.558;13.188;2023-07-08T08:50:17;5.17;;;2.07;;
828;SDS011;396;52.558;13.188;2023-07-08T08:52:52;5.30;;;1.77;;
828;SDS011;396;52.558;13.188;2023-07-08T08:55:20;6.00;;;2.30;;
828;SDS011;396;52.558;13.188;2023-07-08T08:57:49;5.67;;;2.10;;
828;SDS011;396;52.558;13.188;2023-07-08T09:00:24;4.90;;;1.80;;
828;SDS011;396;52.558;13.188;2023-07-08T09:02:57;5.53;;;1.87;;
828;SDS011;396;52.558;13.188;2023-07-08T09:05:29;5.30;;;1.67;;
828;SDS011;396;52.558;13.188;2023-07-08T09:08:00;4.90;;;1.50;;
828;SDS011;396;52.558;13.188;2023-07-08T09:10:35;4.90;;;1.50;;
828;SDS011;396;52.558;13.188;2023-07-08T09:13:11;5.90;;;2.00;;
828;SDS011;396;52.558;13.188;2023-07-08T09:15:45;4.60;;;1.10;;
828;SDS011;396;52.558;13.188;2023-07-08T09:18:15;5.97;;;1.30;;
828;SDS011;396;52.558;13.188;2023-07-08T09:20:48;4.30;;;1.10;;
828;SDS011;396;52.558;13.188;2023-07-08T09:23:17;5.90;;;1.50;;
828;SDS011;396;52.558;13.188;2023-07-08T09:25:49;6.73;;;1.20;;
828;SDS011;396;52.558;13.188;2023-07-08T09:28:19;5.10;;;1.50;;
828;SDS011;396;52.558;13.188;2023-07-08T09:30:46;5.23;;;1.23;;
828;SDS011;396;52.558;13.188;2023-07-08T09:33:14;4.70;;;1.20;;
828;SDS011;396;52.558;13.188;2023-07-08T09:35:42;6.63;;;1.23;;
828;SDS011;396;52.558;13.188;2023-07-08T09:38:14;4.77;;;1.27;;
828;SDS011;396;52.558;13.188;2023-07-08T09:40:45;5.10;;;1.60;;
828;SDS011;396;52.558;13.188;2023-07-08T09:43:16;5.40;;;1.60;;
828;SDS011;396;52.558;13.188;2023-07-08T09:45:49;5.17;;;1.10;;
828;SDS011;396;52.558;13.188;2023-07-08T09:48:18;5.53;;;1.57;;
828;SDS011;396;52.558;13.188;2023-07-08T09:50:47;4.77;;;1.40;;
828;SDS011;396;52.558;13.188;2023-07-08T09:53:16;5.53;;;1.73;;
828;SDS011;396;52.558;13.188;2023-07-08T09:55:43;6.30;;;1.97;;
828;SDS011;396;52.558;13.188;2023-07-08T09:58:11;6.30;;;1.80;;
828;SDS011;396;52.558;13.188;2023-07-08T10:00:45;5.27;;;1.60;;
828;SDS011;396;52.558;13.188;2023-07-08T10:03:19;10.47;;;1.63;;
828;SDS011;396;52.558;13.188;2023-07-08T10:05:49;5.40;;;1.50;;
828;SDS011;396;52.558;13.188;2023-07-08T10:08:18;4.57;;;1.23;;
828;SDS011;396;52.558;13.188;2023-07-08T10:10:48;5.70;;;1.70;;
828;SDS011;396;52.558;13.188;2023-07-08T10:13:20;4.67;;;1.37;;
828;SDS011;396;52.558;13.188;2023-07-08T10:15:54;6.03;;;1.77;;
828;SDS011;396;52.558;13.188;2023-07-08T10:18:24;5.10;;;1.57;;
828;SDS011;396;52.558;13.188;2023-07-08T10:20:57;4.53;;;1.30;;
828;SDS011;396;52.558;13.188;2023-07-08T10:23:34;4.83;;;1.20;;
828;SDS011;396;52.558;13.188;2023-07-08T10:26:10;4.70;;;1.40;;
828;SDS011;396;52.558;13.188;2023-07-08T10:28:44;4.30;;;1.00;;
828;SDS011;396;52.558;13.188;2023-07-08T10:31:25;5.03;;;1.63;;
828;SDS011;396;52.558;13.188;2023-07-08T10:34:00;4.60;;;1.30;;
828;SDS011;396;52.558;13.188;2023-07-08T10:36:41;4.83;;;1.67;;
828;SDS011;396;52.558;13.188;2023-07-08T10:39:17;5.00;;;1.43;;
828;SDS011;396;52.558;13.188;2023-07-08T10:41:57;4.50;;;1.30;;
828;SDS011;396;52.558;13.188;2023-07-08T10:44:33;4.97;;;1.60;;
828;SDS011;396;52.558;13.188;2023-07-08T10:47:13;8.50;;;2.27;;
828;SDS011;396;52.558;13.188;2023-07-08T10:49:52;4.47;;;1.20;;
828;SDS011;396;52.558;13.188;2023-07-08T10:52:31;4.97;;;1.50;;
828;SDS011;396;52.558;13.188;2023-07-08T10:55:10;5.23;;;1.13;;
828;SDS011;396;52.558;13.188;2023-07-08T10:57:52;5.97;;;1.57;;
828;SDS011;396;52.558;13.188;2023-07-08T11:00:36;5.00;;;1.23;;
828;SDS011;396;52.558;13.188;2023-07-08T11:03:14;8.27;;;1.53;;
828;SDS011;396;52.558;13.188;2023-07-08T11:05:58;4.80;;;1.30;;
828;SDS011;396;52.558;13.188;2023-07-08T11:08:29;4.83;;;1.50;;
828;SDS011;396;52.558;13.188;2023-07-08T11:11:03;5.80;;;1.57;;
828;SDS011;396;52.558;13.188;2023-07-08T11:13:36;5.77;;;1.50;;
828;SDS011;396;52.558;13.188;2023-07-08T11:16:12;5.10;;;1.73;;
828;SDS011;396;52.558;13.188;2023-07-08T11:18:47;5.20;;;1.60;;
828;SDS011;396;52.558;13.188;2023-07-08T11:21:19;5.10;;;1.70;;
828;SDS011;396;52.558;13.188;2023-07-08T11:23:50;5.83;;;1.87;;
828;SDS011;396;52.558;13.188;2023-07-08T11:26:24;5.20;;;1.80;;
828;SDS011;396;52.558;13.188;2023-07-08T11:28:56;4.63;;;1.37;;
828;SDS011;396;52.558;13.188;2023-07-08T11:31:25;4.90;;;1.60;;
828;SDS011;396;52.558;13.188;2023-07-08T11:33:56;5.50;;;1.50;;
828;SDS011;396;52.558;13.188;2023-07-08T11:36:24;7.83;;;1.70;;
828;SDS011;396;52.558;13.188;2023-07-08T11:38:54;5.00;;;1.60;;
828;SDS011;396;52.558;13.188;2023-07-08T11:41:22;5.10;;;1.67;;
828;SDS011;396;52.558;13.188;2023-07-08T11:43:56;4.63;;;1.20;;
828;SDS011;396;52.558;13.188;2023-07-08T11:46:24;5.20;;;1.40;;
828;SDS011;396;52.558;13.188;2023-07-08T11:48:53;4.50;;;1.17;;
828;SDS011;396;52.558;13.188;2023-07-08T11:51:23;5.90;;;1.50;;
828;SDS011;396;52.558;13.188;2023-07-08T11:53:58;6.83;;;1.80;;
828;SDS011;396;52.558;13.188;2023-07-08T11:56:27;4.90;;;1.20;;
828;SDS011;396;52.558;13.188;2023-07-08T11:58:59;4.47;;;1.20;;
828;SDS011;396;52.558;13.188;2023-07-08T12:01:39;5.60;;;1.30;;
828;SDS011;396;52.558;13.188;2023-07-08T12:09:49;11.30;;;1.70;;
828;SDS011;396;52.558;13.188;2023-07-08T12:12:28;4.60;;;1.30;;
828;SDS011;396;52.558;13.188;2023-07-08T12:14:58;5.20;;;1.67;;
828;SDS011;396;52.558;13.188;2023-07-08T12:17:31;5.57;;;1.67;;
828;SDS011;396;52.558;13.188;2023-07-08T12:19:58;5.57;;;1.83;;
828;SDS011;396;52.558;13.188;2023-07-08T12:22:29;4.97;;;1.50;;
828;SDS011;396;52.558;13.188;2023-07-08T12:24:56;4.23;;;1.10;;
828;SDS011;396;52.558;13.188;2023-07-08T12:27:23;5.47;;;1.30;;
828;SDS011;396;52.558;13.188;2023-07-08T12:29:51;5.00;;;1.67;;
828;SDS011;396;52.558;13.188;2023-07-08T12:32:18;4.87;;;1.80;;
828;SDS011;396;52.558;13.188;2023-07-08T12:34:47;4.57;;;1.30;;
828;SDS011;396;52.558;13.188;2023-07-08T12:37:14;4.97;;;1.53;;
828;SDS011;396;52.558;13.188;2023-07-08T12:39:42;4.40;;;1.50;;
828;SDS011;396;52.558;13.188;2023-07-08T12:42:10;6.30;;;1.87;;
828;SDS011;396;52.558;13.188;2023-07-08T12:44:38;5.40;;;1.43;;
828;SDS011;396;52.558;13.188;2023-07-08T12:47:08;5.90;;;2.30;;
828;SDS011;396;52.558;13.188;2023-07-08T12:49:35;5.20;;;1.23;;
828;SDS011;396;52.558;13.188;2023-07-08T12:52:02;4.37;;;1.30;;
828;SDS011;396;52.558;13.188;2023-07-08T12:54:29;4.60;;;1.13;;
828;SDS011;396;52.558;13.188;2023-07-08T12:56:58;6.57;;;1.70;;
828;SDS011;396;52.558;13.188;2023-07-08T12:59:25;8.90;;;1.87;;
828;SDS011;396;52.558;13.188;2023-07-08T13:01:52;4.30;;;1.27;;
828;SDS011;396;52.558;13.188;2023-07-08T13:04:20;5.20;;;1.20;;
828;SDS011;396;52.558;13.188;2023-07-08T13:06:47;4.70;;;1.20;;
828;SDS011;396;52.558;13.188;2023-07-08T13:09:18;4.93;;;1.60;;
828;SDS011;396;52.558;13.188;2023-07-08T13:11:53;5.13;;;1.73;;
828;SDS011;396;52.558;13.188;2023-07-08T13:14:22;4.37;;;1.30;;
828;SDS011;396;52.558;13.188;2023-07-08T13:16:50;5.40;;;1.40;;
828;SDS011;396;52.558;13.188;2023-07-08T13:19:18;4.83;;;1.60;;
828;SDS011;396;52.558;13.188;2023-07-08T13:21:46;5.83;;;1.87;;
828;SDS011;396;52.558;13.188;2023-07-08T13:24:14;5.73;;;1.80;;
828;SDS011;396;52.558;13.188;2023-07-08T13:26:44;4.80;;;1.40;;
828;SDS011;396;52.558;13.188;2023-07-08T13:29:13;7.23;;;1.43;;
828;SDS011;396;52.558;13.188;2023-07-08T13:31:43;5.80;;;1.67;;
828;SDS011;396;52.558;13.188;2023-07-08T13:34:15;4.40;;;1.30;;
828;SDS011;396;52.558;13.188;2023-07-08T13:36:44;4.57;;;1.23;;
828;SDS011;396;52.558;13.188;2023-07-08T13:39:17;4.80;;;1.30;;
828;SDS011;396;52.558;13.188;2023-07-08T13:41:48;4.30;;;1.50;;
828;SDS011;396;52.558;13.188;2023-07-08T13:44:15;5.23;;;1.57;;
828;SDS011;396;52.558;13.188;2023-07-08T13:46:44;5.60;;;1.70;;
828;SDS011;396;52.558;13.188;2023-07-08T13:49:19;4.60;;;1.30;;
828;SDS011;396;52.558;13.188;2023-07-08T13:51:48;4.70;;;1.33;;
828;SDS011;396;52.558;13.188;2023-07-08T13:54:19;4.83;;;1.30;;
828;SDS011;396;52.558;13.188;2023-07-08T13:56:48;4.73;;;1.20;;
828;SDS011;396;52.558;13.188;2023-07-08T13:59:18;6.00;;;2.00;;
828;SDS011;396;52.558;13.188;2023-07-08T14:01:47;4.57;;;1.40;;
828;SDS011;396;52.558;13.188;2023-07-08T14:04:18;4.97;;;1.23;;
828;SDS011;396;52.558;13.188;2023-07-08T14:06:46;4.93;;;1.57;;
828;SDS011;396;52.558;13.188;2023-07-08T14:09:13;11.70;;;1.57;;
828;SDS011;396;52.558;13.188;2023-07-08T14:11:43;4.67;;;1.10;;
828;SDS011;396;52.558;13.188;2023-07-08T14:14:11;4.77;;;1.60;;
828;SDS011;396;52.558;13.188;2023-07-08T14:16:39;4.80;;;1.30;;
828;SDS011;396;52.558;13.188;2023-07-08T14:19:11;4.73;;;1.17;;
828;SDS011;396;52.558;13.188;2023-07-08T14:21:41;5.73;;;1.57;;
828;SDS011;396;52.558;13.188;2023-07-08T14:24:08;4.90;;;1.57;;
828;SDS011;396;52.558;13.188;2023-07-08T14:26:37;5.07;;;1.60;;
828;SDS011;396;52.558;13.188;2023-07-08T14:29:05;5.80;;;1.83;;
828;SDS011;396;52.558;13.188;2023-07-08T14:31:31;6.80;;;1.50;;
828;SDS011;396;52.558;13.188;2023-07-08T14:34:00;6.70;;;1.53;;
828;SDS011;396;52.558;13.188;2023-07-08T14:36:31;4.93;;;1.60;;
828;SDS011;396;52.558;13.188;2023-07-08T14:38:58;4.90;;;1.53;;
828;SDS011;396;52.558;13.188;2023-07-08T14:41:25;7.20;;;1.57;;
828;SDS011;396;52.558;13.188;2023-07-08T14:43:53;6.47;;;2.00;;
828;SDS011;396;52.558;13.188;2023-07-08T14:46:22;4.63;;;1.40;;
828;SDS011;396;52.558;13.188;2023-07-08T14:48:48;4.70;;;1.50;;
828;SDS011;396;52.558;13.188;2023-07-08T14:51:15;4.90;;;1.40;;
828;SDS011;396;52.558;13.188;2023-07-08T14:53:41;5.53;;;1.97;;
828;SDS011;396;52.558;13.188;2023-07-08T14:56:11;5.67;;;1.30;;
828;SDS011;396;52.558;13.188;2023-07-08T14:58:40;4.60;;;1.40;;
828;SDS011;396;52.558;13.188;2023-07-08T15:01:11;4.80;;;1.60;;
828;SDS011;396;52.558;13.188;2023-07-08T15:03:45;17.33;;;1.80;;
828;SDS011;396;52.558;13.188;2023-07-08T15:06:12;5.00;;;1.63;;
828;SDS011;396;52.558;13.188;2023-07-08T15:08:38;6.40;;;1.50;;
828;SDS011;396;52.558;13.188;2023-07-08T15:11:08;6.47;;;1.47;;
828;SDS011;396;52.558;13.188;2023-07-08T15:13:37;5.33;;;1.80;;
828;SDS011;396;52.558;13.188;2023-07-08T15:16:04;5.00;;;1.43;;
828;SDS011;396;52.558;13.188;2023-07-08T15:18:32;6.07;;;1.67;;
828;SDS011;396;52.558;13.188;2023-07-08T15:21:00;6.37;;;1.83;;
828;SDS011;396;52.558;13.188;2023-07-08T15:23:26;5.97;;;1.67;;
828;SDS011;396;52.558;13.188;2023-07-08T15:25:53;4.80;;;1.30;;
828;SDS011;396;52.558;13.188;2023-07-08T15:28:20;5.30;;;1.90;;
828;SDS011;396;52.558;13.188;2023-07-08T15:31:00;5.23;;;1.57;;
828;SDS011;396;52.558;13.188;2023-07-08T15:33:28;6.23;;;1.97;;
828;SDS011;396;52.558;13.188;2023-07-08T15:35:54;6.10;;;1.73;;
828;SDS011;396;52.558;13.188;2023-07-08T15:38:22;5.30;;;1.80;;
828;SDS011;396;52.558;13.188;2023-07-08T15:40:49;5.30;;;1.60;;
828;SDS011;396;52.558;13.188;2023-07-08T15:43:16;5.43;;;1.63;;